Jonesboro Municipal Airport
KJBR : now visible

Airfield :











YOU CAN JOIN US ON...

 
LOGIN :

Register | Disclaimer

   EN    FR    IT 

 









Legend :    VFR   Marginal VFR   IFR   Intensive IFR   Very Intensive IFR
Visi :
Ceiling :
>= 8 km
>= 3000ft
5 to 8 km
1000 to 3000 ft
1500m to 5 km
500 to 1000 ft
800 to 1500m
200 to 500 ft
< 800m
< 200 ft
Symbols :   Thunderstorms  Fog  Heavy snow  Heavy precipitations  Wind > 20 kt







- Airport Elevation : 262 ft
- IATA code : JBR


KJBR - Jonesboro Municipal

CURRENT METAR :
  • 252328Z AUTO 36007KT 3SM -RA BR BKN022 BKN042 OVC055 18/18 A2973 RMK AO2 RAB11 P0021 T01830178

EXPIRED METARs :
  • 252321Z AUTO 36011G20KT 1SM +RA BR SCT018 BKN025 OVC110 18/18 A2973 RMK AO2 RAB11 P0020 T01830178
  • 252253Z AUTO 33005KT 10SM FEW020 SCT027 BKN110 21/19 A2970 RMK AO2 SLP055 T02060189
  • 252206Z AUTO 31007KT 10SM FEW021 SCT029 BKN100 21/19 A2968 RMK AO2 LTG DSNT E T02060194
  • 252153Z AUTO 30009KT 10SM FEW014 BKN025 OVC095 20/19 A2968 RMK AO2 LTG DSNT E RAE23 TSE2058 SLP047 P0003 T02000194
  • 252124Z AUTO 27007KT 10SM SCT012 BKN027 OVC075 19/18 A2967 RMK AO2 LTG DSNT NE-SE RAE23 TSE2058 P0003 T01890183
  • 252104Z AUTO 30005KT 5SM RA BR SCT075 OVC100 18/18 A2967 RMK AO2 LTG DSNT NE-S TSE2058 P0003 T01830183
  • 252053Z AUTO 29005KT 10SM -TSRA FEW080 OVC100 18/18 A2967 RMK AO2 PK WND 26030/2002 WSHFT 1951 LTG DSNT ALQDS RAB1956 TSE35B43 SLP044 P0043 60043 T01780178 50006
  • 252049Z AUTO 29005KT 9SM -TSRA FEW070 SCT080 OVC100 18/18 A2967 RMK AO2 PK WND 26030/2002 WSHFT 1951 LTG DSNT ALQDS RAB1956 TSE35B43 P0042

TAF KJBR
Valid from the 26 at 00:00 until the 27 at 00:00 UTC


252331Z 2600/2624 35010KT P6SM BKN035 BKN100
FM260100 30007KT P6SM SCT050
FM260400 30007KT P6SM BKN045 BKN090
FM260700 31010KT P6SM SKC
FM261600 32011G18KT P6SM SKC
KZME FIR / North America



MET'MAP, your aeronautical weather chart ! - Copyright ORBIFLY December 2007 - Disclaimer

ORBIFLY MET'MAP TEAM :

Programming & Development : Alexandra Zaïnal
Concept & Development : Baudouin d'Aumeries
Co-Development & Prog : Marc-Olivier Méhu
Technical & hardware support : Manuel Goepfert

Contact : metmap@orbifly.com




SOURCES & CREDITS :

   NOAA       Earth
Advisory